createdAt,value
2022-11-13T00:00:22.752Z,3.90
2022-11-13T00:00:53.338Z,3.90
2022-11-13T00:01:23.906Z,4.00
2022-11-13T00:01:54.483Z,3.60
2022-11-13T00:02:25.097Z,3.80
2022-11-13T00:02:55.710Z,3.80
2022-11-13T00:03:26.265Z,4.00
2022-11-13T00:03:56.841Z,3.70
2022-11-13T00:04:27.421Z,3.90
2022-11-13T00:04:58.016Z,3.70
2022-11-13T00:05:28.588Z,4.10
2022-11-13T00:05:59.144Z,4.10
2022-11-13T00:06:29.691Z,4.10
2022-11-13T00:07:00.335Z,3.80
2022-11-13T00:07:30.963Z,3.90
2022-11-13T00:08:01.548Z,3.90
2022-11-13T00:08:32.120Z,3.80
2022-11-13T00:09:02.692Z,3.50
2022-11-13T00:09:33.252Z,4.10
2022-11-13T00:10:03.820Z,4.10
2022-11-13T00:10:34.343Z,4.30
2022-11-13T00:11:04.921Z,3.90
2022-11-13T00:11:35.470Z,4.30
2022-11-13T00:12:06.013Z,3.90
2022-11-13T00:12:36.591Z,3.90
2022-11-13T00:13:07.192Z,4.50
2022-11-13T00:13:37.884Z,4.00
2022-11-13T00:14:08.411Z,4.10
2022-11-13T00:14:39.036Z,4.00
2022-11-13T00:15:09.586Z,3.80
2022-11-13T00:15:40.156Z,3.70
2022-11-13T00:16:10.716Z,4.10
2022-11-13T00:16:41.262Z,4.20
2022-11-13T00:17:11.790Z,4.10
2022-11-13T00:17:42.876Z,3.50
2022-11-13T00:18:13.451Z,4.20
2022-11-13T00:18:44.013Z,3.70
2022-11-13T00:19:14.582Z,4.00
2022-11-13T00:19:45.162Z,4.00
2022-11-13T00:20:15.743Z,4.00
2022-11-13T00:20:46.304Z,3.80
2022-11-13T00:21:16.873Z,4.00
2022-11-13T00:21:47.439Z,4.10
2022-11-13T00:22:18.023Z,3.90
2022-11-13T00:22:48.584Z,4.40
2022-11-13T00:23:19.157Z,4.10
2022-11-13T00:23:49.723Z,4.00
2022-11-13T00:24:20.259Z,4.00
2022-11-13T00:24:50.867Z,3.90
2022-11-13T00:25:21.415Z,4.50
2022-11-13T00:25:51.971Z,4.20
2022-11-13T00:26:22.545Z,4.20
2022-11-13T00:26:53.107Z,4.80
2022-11-13T00:27:23.670Z,4.60
2022-11-13T00:27:54.234Z,4.20
2022-11-13T00:28:24.997Z,4.50
2022-11-13T00:28:55.770Z,4.40
2022-11-13T00:29:26.299Z,4.40
2022-11-13T00:29:56.897Z,4.20
2022-11-13T00:30:27.450Z,4.00
2022-11-13T00:30:58.031Z,4.50
2022-11-13T00:31:28.600Z,4.50
2022-11-13T00:31:59.177Z,3.90
2022-11-13T00:32:29.761Z,4.30
2022-11-13T00:33:00.326Z,4.00
2022-11-13T00:34:01.989Z,4.40
2022-11-13T00:34:19.523Z,4.20
2022-11-13T00:34:46.947Z,4.10
2022-11-13T00:35:03.218Z,4.10
2022-11-13T00:35:33.785Z,4.40
2022-11-13T00:36:04.357Z,4.50
2022-11-13T00:36:34.941Z,4.20
2022-11-13T00:37:05.514Z,4.40
2022-11-13T00:37:36.068Z,4.20
2022-11-13T00:38:06.628Z,3.80
2022-11-13T00:38:37.215Z,4.30
2022-11-13T00:39:07.770Z,4.20
2022-11-13T00:39:38.343Z,4.00
2022-11-13T00:40:08.921Z,4.60
2022-11-13T00:40:39.496Z,4.20
2022-11-13T00:41:10.078Z,4.20
2022-11-13T00:41:40.675Z,3.70
2022-11-13T00:42:11.233Z,4.70
2022-11-13T00:42:41.823Z,4.40
2022-11-13T00:43:12.402Z,4.70
2022-11-13T00:43:42.960Z,4.40
2022-11-13T00:44:13.656Z,4.20
2022-11-13T00:44:44.222Z,4.00
2022-11-13T00:45:14.801Z,4.50
2022-11-13T00:45:45.372Z,4.30
2022-11-13T00:46:15.936Z,4.30
2022-11-13T00:46:46.511Z,4.10
2022-11-13T00:47:17.063Z,4.30
2022-11-13T00:47:47.637Z,4.10
2022-11-13T00:48:18.213Z,4.10
2022-11-13T00:48:48.757Z,4.30
2022-11-13T00:49:19.336Z,4.10
2022-11-13T00:49:49.879Z,4.70
2022-11-13T00:50:20.451Z,4.20
2022-11-13T00:50:51.024Z,4.50
2022-11-13T00:51:21.591Z,4.40
2022-11-13T00:51:52.152Z,4.20
2022-11-13T00:52:22.719Z,3.80
2022-11-13T00:52:53.300Z,4.40
2022-11-13T00:53:23.873Z,4.60
2022-11-13T00:53:54.448Z,4.30
2022-11-13T00:54:25.027Z,4.60
2022-11-13T00:54:55.600Z,4.10
2022-11-13T00:55:26.190Z,4.50
2022-11-13T00:55:56.758Z,3.90
2022-11-13T00:56:27.320Z,4.20
2022-11-13T00:56:57.909Z,4.30
2022-11-13T00:57:28.465Z,3.90
2022-11-13T00:57:59.071Z,4.30
2022-11-13T00:58:30.112Z,3.80
2022-11-13T00:59:00.370Z,3.90
2022-11-13T00:59:31.033Z,4.50
2022-11-13T01:00:01.563Z,4.70
2022-11-13T01:00:32.109Z,4.40
2022-11-13T01:01:02.656Z,4.40
2022-11-13T01:01:33.274Z,4.40
2022-11-13T01:02:03.912Z,4.70
2022-11-13T01:02:34.493Z,4.90
2022-11-13T01:03:05.065Z,4.30
2022-11-13T01:03:35.584Z,4.30
2022-11-13T01:04:06.168Z,4.40
2022-11-13T01:04:36.724Z,4.30
2022-11-13T01:05:07.317Z,4.30
2022-11-13T01:05:37.904Z,4.40
2022-11-13T01:06:08.455Z,4.60
2022-11-13T01:06:39.100Z,4.80
2022-11-13T01:07:09.783Z,4.50
2022-11-13T01:07:40.321Z,4.50
2022-11-13T01:08:10.887Z,3.80
2022-11-13T01:08:41.492Z,4.70
2022-11-13T01:09:12.040Z,4.20
2022-11-13T01:09:42.608Z,4.30
2022-11-13T01:10:13.188Z,4.40
2022-11-13T01:10:44.820Z,4.20
2022-11-13T01:11:14.436Z,5.00
2022-11-13T01:11:45.005Z,5.20
2022-11-13T01:12:15.572Z,4.80
2022-11-13T01:12:46.142Z,4.70
2022-11-13T01:13:16.726Z,4.70
2022-11-13T01:13:47.324Z,4.20
2022-11-13T01:14:17.909Z,4.40
2022-11-13T01:14:48.637Z,4.80
2022-11-13T01:15:19.160Z,4.50
2022-11-13T01:15:49.760Z,4.50
2022-11-13T01:16:20.325Z,4.60
2022-11-13T01:16:50.914Z,4.70
2022-11-13T01:17:21.467Z,4.70
2022-11-13T01:17:52.028Z,4.70
2022-11-13T01:18:22.610Z,4.20
2022-11-13T01:18:53.173Z,4.80
2022-11-13T01:19:23.720Z,5.10
2022-11-13T01:19:54.267Z,4.50
2022-11-13T01:20:24.844Z,4.30
2022-11-13T01:20:55.415Z,4.40
2022-11-13T01:21:26.008Z,4.80
2022-11-13T01:21:56.589Z,4.40
2022-11-13T01:22:27.158Z,4.80
2022-11-13T01:22:57.736Z,4.80
2022-11-13T01:23:28.324Z,4.60
2022-11-13T01:23:58.877Z,4.40
2022-11-13T01:24:29.459Z,4.20
2022-11-13T01:25:00.037Z,5.10
2022-11-13T01:25:30.585Z,5.20
2022-11-13T01:26:01.195Z,4.70
2022-11-13T01:26:31.766Z,5.10
2022-11-13T01:27:02.335Z,4.50
2022-11-13T01:27:32.906Z,5.00
2022-11-13T01:28:03.464Z,5.00
2022-11-13T01:28:34.017Z,4.50
2022-11-13T01:29:04.563Z,4.80
2022-11-13T01:29:35.115Z,4.50
2022-11-13T01:30:05.823Z,5.00
2022-11-13T01:30:36.348Z,4.90
2022-11-13T01:31:06.921Z,4.90
2022-11-13T01:31:37.517Z,4.80
2022-11-13T01:32:08.070Z,4.50
2022-11-13T01:32:38.616Z,4.40
2022-11-13T01:33:09.180Z,5.30
2022-11-13T01:33:39.763Z,4.40
2022-11-13T01:34:10.353Z,4.90
2022-11-13T01:34:40.916Z,5.20
2022-11-13T01:35:11.465Z,4.70
2022-11-13T01:35:42.030Z,5.10
2022-11-13T01:36:12.582Z,4.20
2022-11-13T01:36:43.155Z,4.90
2022-11-13T01:37:13.732Z,4.30
2022-11-13T01:37:44.303Z,4.50
2022-11-13T01:38:14.890Z,4.60
2022-11-13T01:38:45.438Z,5.20
2022-11-13T01:39:16.003Z,5.00
2022-11-13T01:39:46.555Z,4.00
2022-11-13T01:40:17.135Z,4.40
2022-11-13T01:40:47.688Z,4.10
2022-11-13T01:41:23.124Z,4.70
2022-11-13T01:41:49.047Z,4.30
2022-11-13T01:42:19.620Z,4.70
2022-11-13T01:42:50.200Z,4.60
2022-11-13T01:43:20.774Z,4.60
2022-11-13T01:43:51.349Z,4.80
2022-11-13T01:44:21.921Z,4.60
2022-11-13T01:44:52.509Z,4.50
2022-11-13T01:45:23.196Z,4.50
2022-11-13T01:45:53.734Z,4.30
2022-11-13T01:46:24.331Z,4.20
2022-11-13T01:46:54.899Z,4.70
2022-11-13T01:47:25.482Z,4.30
2022-11-13T01:47:56.036Z,4.40
2022-11-13T01:48:26.878Z,4.40
2022-11-13T01:48:57.549Z,4.50
2022-11-13T01:49:28.127Z,4.40
2022-11-13T01:49:58.706Z,4.70
2022-11-13T01:50:29.272Z,4.80
2022-11-13T01:50:59.851Z,4.50
2022-11-13T01:51:30.426Z,3.90
2022-11-13T01:52:01.026Z,4.20
2022-11-13T01:52:31.595Z,4.20
2022-11-13T01:53:02.154Z,4.40
2022-11-13T01:53:32.709Z,4.90
2022-11-13T01:54:03.268Z,4.10
2022-11-13T01:54:33.844Z,4.20
2022-11-13T01:55:04.385Z,4.60
2022-11-13T01:55:34.955Z,4.30
2022-11-13T01:56:05.533Z,4.20
2022-11-13T01:56:36.107Z,4.00
2022-11-13T01:57:06.692Z,4.50
2022-11-13T01:57:37.245Z,5.10
2022-11-13T01:58:07.819Z,4.70
2022-11-13T01:58:38.419Z,4.30
2022-11-13T01:59:08.981Z,3.90
2022-11-13T01:59:39.545Z,4.30
2022-11-13T02:00:10.121Z,4.40
2022-11-13T02:00:40.809Z,4.30
2022-11-13T02:01:11.336Z,4.40
2022-11-13T02:01:41.965Z,4.30
2022-11-13T02:02:12.534Z,4.30
2022-11-13T02:02:43.114Z,4.20
2022-11-13T02:03:13.703Z,4.00
2022-11-13T02:03:44.272Z,4.30
2022-11-13T02:04:14.827Z,4.30
2022-11-13T02:04:45.360Z,4.50
2022-11-13T02:05:15.932Z,4.30
2022-11-13T02:05:46.511Z,4.00
2022-11-13T02:06:17.093Z,3.90
2022-11-13T02:06:47.724Z,4.60
2022-11-13T02:07:18.338Z,4.40
2022-11-13T02:07:48.880Z,4.80
2022-11-13T02:08:19.464Z,4.50
2022-11-13T02:08:50.053Z,4.50
2022-11-13T02:09:20.624Z,4.30
2022-11-13T02:09:51.180Z,4.50
2022-11-13T02:10:21.735Z,4.70
2022-11-13T02:10:52.303Z,4.10
2022-11-13T02:11:22.857Z,4.50
2022-11-13T02:11:53.426Z,4.70
2022-11-13T02:12:23.986Z,4.20
2022-11-13T02:12:54.594Z,4.50
2022-11-13T02:13:25.149Z,4.50
2022-11-13T02:13:55.722Z,4.30
2022-11-13T02:14:26.319Z,4.20
2022-11-13T02:14:56.884Z,4.80
2022-11-13T02:15:27.440Z,4.20
2022-11-13T02:15:58.142Z,4.30
2022-11-13T02:16:28.687Z,4.20
2022-11-13T02:16:59.281Z,4.40
2022-11-13T02:17:29.845Z,4.40
2022-11-13T02:18:00.399Z,4.10
2022-11-13T02:18:31.262Z,4.40
2022-11-13T02:19:01.925Z,4.00
2022-11-13T02:19:32.494Z,4.30
2022-11-13T02:20:03.061Z,4.10
2022-11-13T02:20:33.627Z,4.20
2022-11-13T02:21:04.195Z,4.40
2022-11-13T02:21:34.764Z,4.50
2022-11-13T02:22:05.387Z,4.30
2022-11-13T02:22:35.945Z,4.30
2022-11-13T02:23:06.506Z,4.00
2022-11-13T02:23:37.083Z,4.30
2022-11-13T02:24:07.644Z,4.50
2022-11-13T02:24:40.180Z,4.20
2022-11-13T02:25:08.988Z,4.30
2022-11-13T02:25:39.527Z,4.50
2022-11-13T02:26:10.090Z,4.20
2022-11-13T02:26:40.656Z,4.30
2022-11-13T02:27:11.196Z,4.30
2022-11-13T02:27:41.791Z,4.10
2022-11-13T02:28:12.370Z,4.30
2022-11-13T02:28:42.949Z,4.20
2022-11-13T02:29:13.532Z,4.20
2022-11-13T02:29:44.070Z,4.10
2022-11-13T02:30:16.321Z,4.10
2022-11-13T02:30:45.479Z,4.70
2022-11-13T02:31:16.184Z,4.70
2022-11-13T02:31:46.722Z,4.20
2022-11-13T02:32:17.274Z,4.00
2022-11-13T02:32:47.871Z,4.00
2022-11-13T02:33:18.462Z,4.20
2022-11-13T02:33:49.070Z,4.20
2022-11-13T02:34:19.656Z,4.60
2022-11-13T02:34:50.231Z,4.00
2022-11-13T02:35:20.765Z,3.90
2022-11-13T02:35:51.315Z,4.30
2022-11-13T02:36:21.882Z,4.30
2022-11-13T02:36:52.455Z,4.30
2022-11-13T02:37:23.018Z,3.60
2022-11-13T02:37:53.583Z,3.80
2022-11-13T02:38:24.159Z,4.50
2022-11-13T02:38:54.703Z,4.10
2022-11-13T02:39:25.260Z,4.10
2022-11-13T02:39:55.845Z,4.20
2022-11-13T02:40:26.443Z,4.10
2022-11-13T02:40:57.031Z,4.50
2022-11-13T02:41:27.588Z,4.70
2022-11-13T02:41:58.138Z,4.00
2022-11-13T02:42:28.670Z,4.10
2022-11-13T02:42:59.286Z,3.80
2022-11-13T02:43:29.862Z,4.20
2022-11-13T02:44:00.427Z,3.60
2022-11-13T02:44:31.016Z,4.50
2022-11-13T02:45:01.595Z,4.10
2022-11-13T02:45:32.165Z,4.20
2022-11-13T02:46:02.748Z,4.30
2022-11-13T02:46:33.438Z,4.00
2022-11-13T02:47:03.954Z,3.70
2022-11-13T02:47:34.518Z,4.00
2022-11-13T02:48:05.107Z,4.20
2022-11-13T02:48:35.676Z,4.00
2022-11-13T02:49:06.256Z,4.50
2022-11-13T02:49:36.832Z,4.50
2022-11-13T02:50:07.392Z,3.70
2022-11-13T02:50:38.002Z,4.00
2022-11-13T02:51:08.579Z,4.40
2022-11-13T02:51:39.135Z,4.40
2022-11-13T02:52:09.701Z,4.00
2022-11-13T02:52:40.337Z,4.00
2022-11-13T02:53:10.896Z,3.90
2022-11-13T02:53:41.484Z,4.30
2022-11-13T02:54:16.764Z,3.90
2022-11-13T02:54:42.827Z,4.40
2022-11-13T02:55:13.406Z,4.40
2022-11-13T02:55:43.975Z,3.80
2022-11-13T02:56:14.519Z,4.00
2022-11-13T02:56:45.102Z,4.10
2022-11-13T02:57:15.675Z,4.20
2022-11-13T02:57:46.223Z,4.40
2022-11-13T02:58:16.809Z,4.00
2022-11-13T02:58:47.370Z,3.90
2022-11-13T02:59:17.964Z,4.30
2022-11-13T02:59:48.532Z,4.00
2022-11-13T03:00:19.104Z,4.10
2022-11-13T03:00:49.646Z,4.20
2022-11-13T03:01:20.346Z,4.40
2022-11-13T03:01:50.983Z,4.30
2022-11-13T03:02:21.536Z,4.60
2022-11-13T03:02:52.093Z,4.20
2022-11-13T03:03:48.139Z,4.10
2022-11-13T03:03:58.142Z,4.10
2022-11-13T03:04:24.235Z,4.70
2022-11-13T03:05:12.374Z,4.20
2022-11-13T03:05:25.580Z,4.20
2022-11-13T03:05:56.124Z,4.30
2022-11-13T03:06:26.748Z,4.10
2022-11-13T03:06:57.357Z,4.30
2022-11-13T03:07:27.910Z,4.30
2022-11-13T03:07:58.479Z,4.30
2022-11-13T03:08:30.284Z,4.60
2022-11-13T03:08:59.982Z,4.00
2022-11-13T03:09:30.577Z,4.00
2022-11-13T03:10:01.164Z,3.90
2022-11-13T03:10:31.743Z,3.90
2022-11-13T03:11:02.313Z,3.90
2022-11-13T03:11:32.869Z,4.50
2022-11-13T03:12:03.462Z,4.20
2022-11-13T03:12:34.038Z,4.40
2022-11-13T03:13:04.583Z,3.80
2022-11-13T03:13:35.116Z,4.10
2022-11-13T03:14:05.672Z,4.70
2022-11-13T03:14:36.264Z,4.10
2022-11-13T03:15:06.845Z,4.60
2022-11-13T03:15:37.411Z,4.30
2022-11-13T03:16:07.994Z,4.30
2022-11-13T03:16:38.566Z,4.10
2022-11-13T03:17:09.262Z,4.10
2022-11-13T03:17:39.793Z,4.30
2022-11-13T03:18:10.347Z,4.20
2022-11-13T03:18:40.976Z,4.70
2022-11-13T03:19:11.550Z,3.80
2022-11-13T03:19:42.104Z,4.80
2022-11-13T03:20:12.661Z,4.50
2022-11-13T03:20:43.257Z,3.80
2022-11-13T03:21:13.819Z,4.10
2022-11-13T03:21:44.406Z,4.00
2022-11-13T03:22:14.980Z,4.20
2022-11-13T03:22:45.562Z,4.10
2022-11-13T03:23:16.145Z,4.00
2022-11-13T03:23:46.755Z,4.30
2022-11-13T03:24:17.297Z,3.80
2022-11-13T03:24:47.884Z,4.30
2022-11-13T03:25:18.454Z,4.00
2022-11-13T03:25:49.048Z,4.50
2022-11-13T03:26:19.618Z,4.00
2022-11-13T03:26:50.217Z,3.90
2022-11-13T03:27:20.768Z,3.80
2022-11-13T03:27:51.333Z,4.40
2022-11-13T03:28:21.889Z,4.80
2022-11-13T03:28:52.463Z,4.50
2022-11-13T03:29:23.024Z,4.20
2022-11-13T03:29:53.584Z,4.50
2022-11-13T03:30:24.148Z,3.80
2022-11-13T03:30:54.695Z,3.70
2022-11-13T03:31:25.225Z,4.00
2022-11-13T03:31:55.814Z,3.80
2022-11-13T03:32:26.501Z,4.40
2022-11-13T03:32:57.051Z,4.10
2022-11-13T03:33:27.628Z,4.30
2022-11-13T03:33:58.194Z,4.00
2022-11-13T03:34:28.752Z,3.80
2022-11-13T03:34:59.309Z,4.30
2022-11-13T03:35:32.665Z,4.20
2022-11-13T03:36:00.626Z,3.90
2022-11-13T03:36:31.203Z,3.80
2022-11-13T03:37:01.766Z,4.10
2022-11-13T03:37:32.353Z,3.60
2022-11-13T03:38:02.909Z,3.70
2022-11-13T03:38:33.481Z,3.90
2022-11-13T03:39:04.059Z,3.70
2022-11-13T03:39:34.596Z,3.90
2022-11-13T03:40:05.169Z,3.60
2022-11-13T03:40:35.706Z,4.30
2022-11-13T03:41:06.257Z,3.70
2022-11-13T03:41:36.831Z,3.60
2022-11-13T03:42:07.413Z,3.70
2022-11-13T03:42:37.996Z,3.80
2022-11-13T03:43:08.597Z,3.60
2022-11-13T03:43:39.155Z,3.70
2022-11-13T03:44:09.713Z,3.70
2022-11-13T03:44:40.245Z,3.40
2022-11-13T03:45:10.823Z,4.00
2022-11-13T03:45:41.389Z,4.00
2022-11-13T03:46:11.971Z,3.40
2022-11-13T03:46:42.510Z,3.40
2022-11-13T03:47:13.095Z,3.70
2022-11-13T03:47:43.789Z,3.30
2022-11-13T03:48:14.323Z,3.80
2022-11-13T03:48:44.920Z,3.90
2022-11-13T03:49:15.485Z,3.70
2022-11-13T03:49:46.057Z,3.50
2022-11-13T03:50:16.609Z,3.60
2022-11-13T03:50:47.336Z,3.60
2022-11-13T03:51:17.880Z,4.00
2022-11-13T03:51:48.428Z,3.50
2022-11-13T03:52:19.015Z,4.10
2022-11-13T03:52:49.568Z,3.50
2022-11-13T03:53:20.119Z,3.50
2022-11-13T03:53:50.704Z,3.70
2022-11-13T03:54:21.268Z,4.00
2022-11-13T03:54:51.849Z,3.70
2022-11-13T03:55:22.420Z,3.80
2022-11-13T03:55:52.987Z,3.70
2022-11-13T03:56:23.554Z,3.30
2022-11-13T03:56:54.143Z,3.70
2022-11-13T03:57:24.712Z,3.30
2022-11-13T03:57:55.287Z,3.60
2022-11-13T03:58:26.392Z,4.10
2022-11-13T03:58:56.618Z,3.40
2022-11-13T03:59:27.174Z,3.90
2022-11-13T03:59:57.745Z,3.70
2022-11-13T04:00:28.313Z,3.90
2022-11-13T04:00:58.847Z,3.70
2022-11-13T04:01:29.521Z,3.90
2022-11-13T04:02:00.225Z,3.80
2022-11-13T04:02:30.802Z,3.90
2022-11-13T04:03:01.478Z,3.40
2022-11-13T04:03:32.007Z,3.70
2022-11-13T04:04:02.566Z,3.70
2022-11-13T04:04:33.173Z,3.60
2022-11-13T04:05:03.742Z,3.90
2022-11-13T04:05:34.296Z,3.70
2022-11-13T04:06:04.867Z,3.40
2022-11-13T04:06:35.459Z,3.70
2022-11-13T04:07:06.058Z,3.40
2022-11-13T04:07:36.657Z,3.50
2022-11-13T04:08:07.227Z,3.60
2022-11-13T04:08:37.773Z,3.50
2022-11-13T04:09:08.308Z,3.50
2022-11-13T04:09:38.922Z,3.80
2022-11-13T04:10:09.479Z,3.50
2022-11-13T04:10:40.038Z,3.30
2022-11-13T04:11:10.617Z,3.50
2022-11-13T04:11:41.169Z,3.60
2022-11-13T04:12:11.736Z,3.50
2022-11-13T04:12:42.311Z,3.50
2022-11-13T04:13:12.898Z,3.30
2022-11-13T04:13:43.479Z,3.40
2022-11-13T04:14:14.059Z,3.60
2022-11-13T04:14:44.626Z,3.70
2022-11-13T04:15:15.202Z,3.80
2022-11-13T04:15:45.792Z,3.60
2022-11-13T04:16:16.351Z,4.00
2022-11-13T04:16:46.919Z,3.50
2022-11-13T04:17:17.481Z,3.80
2022-11-13T04:17:48.079Z,3.80
2022-11-13T04:18:18.769Z,4.20
2022-11-13T04:18:49.305Z,4.10
2022-11-13T04:19:19.882Z,3.90
2022-11-13T04:19:50.448Z,4.00
2022-11-13T04:20:21.025Z,3.40
2022-11-13T04:20:51.586Z,3.90
2022-11-13T04:21:22.155Z,3.30
2022-11-13T04:21:52.729Z,3.60
2022-11-13T04:22:23.301Z,3.10
2022-11-13T04:22:53.849Z,3.10
2022-11-13T04:23:24.405Z,3.30
2022-11-13T04:23:54.985Z,3.50
2022-11-13T04:24:25.568Z,3.30
2022-11-13T04:24:56.125Z,3.50
2022-11-13T04:25:26.691Z,3.20
2022-11-13T04:25:57.265Z,3.00
2022-11-13T04:26:27.822Z,3.80
2022-11-13T04:26:58.414Z,3.60
2022-11-13T04:27:28.981Z,3.60
2022-11-13T04:27:59.560Z,3.60
2022-11-13T04:28:30.610Z,3.10
2022-11-13T04:29:00.736Z,3.20
2022-11-13T04:29:31.303Z,3.80
2022-11-13T04:30:01.859Z,3.60
2022-11-13T04:30:32.431Z,3.80
2022-11-13T04:31:02.989Z,3.40
2022-11-13T04:31:33.603Z,3.60
2022-11-13T04:32:04.160Z,3.40
2022-11-13T04:32:34.758Z,3.40
2022-11-13T04:33:05.357Z,3.30
2022-11-13T04:33:36.072Z,3.10
2022-11-13T04:34:06.600Z,3.40
2022-11-13T04:34:37.180Z,3.40
2022-11-13T04:35:07.741Z,3.70
2022-11-13T04:35:38.309Z,3.60
2022-11-13T04:36:08.880Z,3.50
2022-11-13T04:36:39.452Z,3.50
2022-11-13T04:37:10.063Z,3.30
2022-11-13T04:37:40.627Z,3.10
2022-11-13T04:38:11.215Z,3.60
2022-11-13T04:38:41.825Z,3.40
2022-11-13T04:39:12.392Z,3.80
2022-11-13T04:39:42.951Z,3.80
2022-11-13T04:40:13.544Z,3.30
2022-11-13T04:40:44.082Z,3.80
2022-11-13T04:41:14.619Z,3.20
2022-11-13T04:41:45.166Z,3.30
2022-11-13T04:42:15.729Z,3.70
2022-11-13T04:42:46.300Z,3.50
2022-11-13T04:43:16.884Z,3.80
2022-11-13T04:43:47.438Z,3.60
2022-11-13T04:44:17.988Z,3.30
2022-11-13T04:44:48.539Z,3.50
2022-11-13T04:45:19.124Z,4.00
2022-11-13T04:45:49.678Z,3.80
2022-11-13T04:46:20.265Z,3.70
2022-11-13T04:46:50.833Z,3.90
2022-11-13T04:47:21.382Z,3.40
2022-11-13T04:47:51.967Z,3.30
2022-11-13T04:48:22.548Z,3.70
2022-11-13T04:48:53.257Z,3.60
2022-11-13T04:49:23.790Z,3.60
2022-11-13T04:49:54.382Z,3.40
2022-11-13T04:50:24.966Z,3.40
2022-11-13T04:50:55.530Z,3.40
2022-11-13T04:51:26.110Z,3.50
2022-11-13T04:51:56.667Z,3.80
2022-11-13T04:52:27.249Z,3.50
2022-11-13T04:52:57.830Z,4.00
2022-11-13T04:53:28.409Z,3.60
2022-11-13T04:53:59.005Z,3.70
2022-11-13T04:54:29.571Z,3.50
2022-11-13T04:55:00.139Z,3.40
2022-11-13T04:55:30.704Z,3.30
2022-11-13T04:56:01.309Z,4.10
2022-11-13T04:56:31.876Z,3.50
2022-11-13T04:57:02.425Z,3.40
2022-11-13T04:57:33.011Z,3.60
2022-11-13T04:58:03.572Z,3.50
2022-11-13T04:58:34.124Z,3.80
2022-11-13T04:59:04.689Z,3.70
2022-11-13T04:59:35.265Z,3.40
2022-11-13T05:00:05.826Z,3.30
2022-11-13T05:00:36.387Z,3.50
2022-11-13T05:01:06.978Z,3.10
2022-11-13T05:01:37.606Z,3.50
2022-11-13T05:02:08.217Z,3.40
2022-11-13T05:02:38.809Z,3.30
2022-11-13T05:03:09.381Z,3.10
2022-11-13T05:03:39.942Z,3.50
2022-11-13T05:04:10.642Z,3.50
2022-11-13T05:04:41.177Z,3.40
2022-11-13T05:05:11.755Z,3.10
2022-11-13T05:05:42.320Z,3.40
2022-11-13T05:06:12.868Z,3.70
2022-11-13T05:06:43.494Z,3.20
2022-11-13T05:07:14.198Z,3.20
2022-11-13T05:07:44.767Z,3.30
2022-11-13T05:08:15.343Z,3.60
2022-11-13T05:08:45.902Z,3.00
2022-11-13T05:09:16.472Z,3.50
2022-11-13T05:09:47.059Z,3.30
2022-11-13T05:10:17.633Z,3.20
2022-11-13T05:10:48.186Z,3.70
2022-11-13T05:11:18.758Z,3.70
2022-11-13T05:11:49.333Z,3.30
2022-11-13T05:12:19.891Z,3.50
2022-11-13T05:12:50.485Z,3.70
2022-11-13T05:13:21.048Z,3.50
2022-11-13T05:13:51.619Z,3.40
2022-11-13T05:14:22.195Z,3.90
2022-11-13T05:14:52.757Z,3.10
2022-11-13T05:15:23.323Z,3.20
2022-11-13T05:15:53.909Z,3.30
2022-11-13T05:16:24.473Z,3.60
2022-11-13T05:16:55.005Z,3.20
2022-11-13T05:17:25.545Z,3.50
2022-11-13T05:17:56.105Z,3.80
2022-11-13T05:18:27.162Z,3.60
2022-11-13T05:18:57.408Z,3.80
2022-11-13T05:19:28.096Z,3.40
2022-11-13T05:19:58.645Z,3.40
2022-11-13T05:20:29.185Z,3.90
2022-11-13T05:20:59.754Z,3.30
2022-11-13T05:21:30.322Z,3.10
2022-11-13T05:22:00.900Z,3.20
2022-11-13T05:22:31.479Z,3.00
2022-11-13T05:23:02.070Z,3.70
2022-11-13T05:23:32.662Z,3.40
2022-11-13T05:24:03.218Z,3.40
2022-11-13T05:24:33.768Z,3.40
2022-11-13T05:25:04.461Z,3.70
2022-11-13T05:25:35.002Z,3.10
2022-11-13T05:26:05.575Z,3.00
2022-11-13T05:26:36.131Z,4.00
2022-11-13T05:27:06.694Z,3.10
2022-11-13T05:27:37.258Z,3.40
2022-11-13T05:28:07.844Z,3.70
2022-11-13T05:28:38.398Z,3.20
2022-11-13T05:29:08.950Z,3.30
2022-11-13T05:29:39.479Z,3.50
2022-11-13T05:30:10.022Z,3.60
2022-11-13T05:30:40.594Z,3.20
2022-11-13T05:31:11.145Z,3.60
2022-11-13T05:31:41.740Z,3.30
2022-11-13T05:32:12.316Z,3.50
2022-11-13T05:32:42.912Z,3.20
2022-11-13T05:33:13.514Z,3.50
2022-11-13T05:33:44.085Z,3.90
2022-11-13T05:34:14.685Z,3.70
2022-11-13T05:34:45.371Z,3.80
2022-11-13T05:35:15.916Z,3.50
2022-11-13T05:35:46.484Z,3.70
2022-11-13T05:36:17.087Z,3.40
2022-11-13T05:36:47.663Z,3.60
2022-11-13T05:37:18.229Z,3.70
2022-11-13T05:37:48.816Z,3.40
2022-11-13T05:38:19.381Z,3.60
2022-11-13T05:38:49.941Z,3.40
2022-11-13T05:39:20.521Z,3.50
2022-11-13T05:39:51.072Z,3.40
2022-11-13T05:40:21.613Z,3.30
2022-11-13T05:40:52.168Z,3.40
2022-11-13T05:41:22.723Z,3.20
2022-11-13T05:41:53.291Z,3.70
2022-11-13T05:42:23.875Z,3.60
2022-11-13T05:42:54.447Z,3.50
2022-11-13T05:43:25.005Z,3.40
2022-11-13T05:43:59.435Z,3.90
2022-11-13T05:44:26.231Z,3.50
2022-11-13T05:44:56.810Z,3.60
2022-11-13T05:45:27.367Z,3.50
2022-11-13T05:45:57.938Z,3.90
2022-11-13T05:46:28.492Z,3.40
2022-11-13T05:46:59.051Z,3.40
2022-11-13T05:47:29.636Z,3.50
2022-11-13T05:48:00.214Z,3.70
2022-11-13T05:48:31.260Z,3.60
2022-11-13T05:49:01.375Z,3.90
2022-11-13T05:49:31.952Z,3.70
2022-11-13T05:50:02.651Z,4.00
2022-11-13T05:50:33.184Z,4.30
2022-11-13T05:51:03.671Z,3.80
2022-11-13T05:51:34.764Z,4.00
2022-11-13T05:52:05.340Z,3.70
2022-11-13T05:52:35.888Z,3.60
2022-11-13T05:53:06.455Z,3.40
2022-11-13T05:53:37.022Z,3.90
2022-11-13T05:54:07.590Z,3.60
2022-11-13T05:54:38.109Z,4.20
2022-11-13T05:55:08.636Z,4.00
2022-11-13T05:55:39.668Z,3.80
2022-11-13T05:56:10.756Z,3.50
2022-11-13T05:56:41.353Z,4.10
2022-11-13T05:57:11.918Z,3.90
2022-11-13T05:57:42.509Z,4.20
2022-11-13T05:58:13.050Z,4.00
2022-11-13T05:58:43.601Z,4.10
2022-11-13T05:59:14.107Z,3.70
2022-11-13T05:59:45.137Z,4.00
2022-11-13T06:00:16.226Z,4.00
2022-11-13T06:00:46.761Z,3.80
2022-11-13T06:01:17.771Z,4.20
2022-11-13T06:01:48.891Z,3.80
2022-11-13T06:02:19.559Z,4.40
2022-11-13T06:02:50.088Z,3.90
2022-11-13T06:03:20.810Z,4.10
2022-11-13T06:03:51.321Z,4.20
2022-11-13T06:04:21.856Z,4.40
2022-11-13T06:04:56.358Z,3.80
2022-11-13T06:05:23.610Z,4.40
2022-11-13T06:05:54.104Z,4.00
2022-11-13T06:06:24.608Z,3.80
2022-11-13T06:06:55.701Z,4.00
2022-11-13T06:07:26.234Z,3.60
2022-11-13T06:07:56.744Z,4.00
2022-11-13T06:08:27.680Z,4.30
2022-11-13T06:08:57.871Z,4.20
2022-11-13T06:09:28.387Z,4.20
2022-11-13T06:09:58.916Z,4.40
2022-11-13T06:10:29.561Z,4.40
2022-11-13T06:11:00.051Z,4.10
2022-11-13T06:11:30.576Z,4.60
2022-11-13T06:12:01.101Z,4.90
2022-11-13T06:12:32.155Z,4.20
2022-11-13T06:13:02.677Z,4.80
2022-11-13T06:13:33.189Z,4.40
2022-11-13T06:14:03.716Z,4.60
2022-11-13T06:14:34.742Z,4.90
2022-11-13T06:15:05.779Z,4.50
2022-11-13T06:15:36.324Z,4.70
2022-11-13T06:16:06.846Z,4.40
2022-11-13T06:16:37.883Z,5.10
2022-11-13T06:17:08.904Z,4.40
2022-11-13T06:17:39.955Z,4.50
2022-11-13T06:18:10.469Z,4.80
2022-11-13T06:18:41.002Z,4.80
2022-11-13T06:19:11.521Z,4.70
2022-11-13T06:19:42.063Z,4.70
2022-11-13T06:20:12.588Z,4.70
2022-11-13T06:20:43.735Z,4.70
2022-11-13T06:21:14.253Z,4.90
2022-11-13T06:21:44.768Z,4.40
2022-11-13T06:22:15.769Z,4.20
2022-11-13T06:22:46.820Z,4.80
2022-11-13T06:23:17.328Z,4.10
2022-11-13T06:23:47.857Z,4.70
2022-11-13T06:24:18.885Z,4.60
2022-11-13T06:24:49.938Z,4.60
2022-11-13T06:25:20.464Z,4.90
2022-11-13T06:25:50.982Z,4.60
2022-11-13T06:26:22.009Z,5.00
2022-11-13T06:26:53.036Z,4.90
2022-11-13T06:27:24.057Z,4.80
2022-11-13T06:27:55.113Z,5.20
2022-11-13T06:28:26.036Z,5.00
2022-11-13T06:28:56.682Z,5.10
2022-11-13T06:29:27.202Z,4.90
2022-11-13T06:29:58.206Z,5.00
2022-11-13T06:30:29.217Z,4.70
2022-11-13T06:31:00.252Z,5.20
2022-11-13T06:31:31.272Z,5.20
2022-11-13T06:32:02.323Z,6.00
2022-11-13T06:32:32.902Z,5.70
2022-11-13T06:33:03.418Z,4.90
2022-11-13T06:33:34.453Z,5.40
2022-11-13T06:34:04.966Z,5.20
2022-11-13T06:34:35.493Z,5.90
2022-11-13T06:35:06.531Z,5.30
2022-11-13T06:35:37.555Z,5.20
2022-11-13T06:36:08.711Z,5.40
2022-11-13T06:36:39.186Z,5.30
2022-11-13T06:37:09.725Z,5.90
2022-11-13T06:37:40.261Z,5.90
2022-11-13T06:38:11.278Z,5.50
2022-11-13T06:38:42.359Z,6.20
2022-11-13T06:39:13.003Z,5.20
2022-11-13T06:39:43.528Z,5.10
2022-11-13T06:40:14.064Z,5.50
2022-11-13T06:40:44.569Z,5.90
2022-11-13T06:41:15.597Z,5.50
2022-11-13T06:41:46.629Z,5.60
2022-11-13T06:42:17.664Z,6.20
2022-11-13T06:42:48.171Z,5.90
2022-11-13T06:43:18.705Z,5.80
2022-11-13T06:43:49.711Z,6.60
2022-11-13T06:44:20.740Z,5.80
2022-11-13T06:44:51.758Z,5.50
2022-11-13T06:45:22.281Z,5.90
2022-11-13T06:45:53.304Z,6.20
2022-11-13T06:46:23.842Z,6.10
2022-11-13T06:46:54.374Z,6.20
2022-11-13T06:47:25.421Z,6.70